Terminal Aerodrome Forecast
Issued by NWS Sioux Falls, SD

Home | Current Version | Previous Version | Text Only | Print | Product List | Glossary On
Versions: 1 2 3 4 5 6 7 8 9 10 11 12 13
000
FTUS43 KFSD 170520
TAFFSD
TAF
KFSD 170520Z 1706/1806 16006KT P6SM BKN040
     FM171000 11004KT P6SM BKN030
     FM171600 06007KT P6SM SCT030
     FM180300 09005KT P6SM SCT030=

USA.gov is the U.S. government's official web portal to all federal, state and local government web resources and services.